Time;durP1;ratioP1;P1;durP2;ratioP2;P2;SDS_P1;SDS_P2;PMS_P1;PMS_P2;Temp;Humidity;BMP_temperature;BMP_pressure;BME280_temperature;BME280_humidity;BME280_pressure;Samples;Min_cycle;Max_cycle;Signal;HPM_P1;HPM_P2
2022/07/15 00:01:47;;;;;;;6.63;2.30;;;;;;;;;;5076362;28;20029;-71
2022/07/15 00:04:13;;;;;;;7.75;2.38;;;;;;;;;;5085246;28;20028;-72
2022/07/15 00:06:38;;;;;;;8.18;2.55;;;;;;;;;;5082316;28;20357;-72
2022/07/15 00:09:04;;;;;;;10.52;2.58;;;;;;;;;;5079404;28;20090;-72
2022/07/15 00:11:29;;;;;;;7.82;2.20;;;;;;;;;;5087449;28;20077;-72
2022/07/15 00:13:55;;;;;;;7.13;2.70;;;;;;;;;;5083057;28;20062;-72
2022/07/15 00:16:20;;;;;;;6.03;2.60;;;;;;;;;;5074947;28;20036;-72
2022/07/15 00:18:45;;;;;;;6.57;2.47;;;;;;;;;;5079668;28;20103;-72
2022/07/15 00:21:11;;;;;;;15.25;2.90;;;;;;;;;;5079515;28;20419;-72
2022/07/15 00:23:36;;;;;;;8.73;2.40;;;;;;;;;;5081605;28;20028;-72
2022/07/15 00:26:01;;;;;;;9.50;2.70;;;;;;;;;;5078897;28;20017;-72
2022/07/15 00:28:28;;;;;;;5.07;2.45;;;;;;;;;;5075846;28;20025;-71
2022/07/15 00:30:53;;;;;;;5.93;2.65;;;;;;;;;;5070992;28;20107;-72
2022/07/15 00:33:18;;;;;;;9.70;2.97;;;;;;;;;;5078035;28;20108;-72
2022/07/15 00:35:44;;;;;;;8.18;2.63;;;;;;;;;;5083861;28;20023;-71
2022/07/15 00:38:09;;;;;;;6.38;2.65;;;;;;;;;;5085791;28;20060;-72
2022/07/15 00:40:42;;;;;;;5.63;2.78;;;;;;;;;;5078266;28;20133;-71
2022/07/15 00:43:07;;;;;;;15.10;3.00;;;;;;;;;;5074979;28;20032;-72
2022/07/15 00:45:32;;;;;;;7.07;2.58;;;;;;;;;;5074784;28;20032;-71
2022/07/15 00:47:57;;;;;;;6.40;2.58;;;;;;;;;;5076296;28;20095;-72
2022/07/15 00:50:24;;;;;;;8.82;2.63;;;;;;;;;;5075463;28;20024;-71
2022/07/15 00:52:54;;;;;;;8.38;2.78;;;;;;;;;;5082166;28;20032;-71
2022/07/15 00:55:20;;;;;;;7.32;2.67;;;;;;;;;;5073671;28;20088;-72
2022/07/15 00:57:45;;;;;;;6.95;3.20;;;;;;;;;;5080478;28;20043;-72
2022/07/15 01:00:11;;;;;;;6.35;2.92;;;;;;;;;;5084111;28;20078;-71
2022/07/15 01:02:43;;;;;;;11.05;2.97;;;;;;;;;;5088343;28;20105;-71
2022/07/15 01:05:10;;;;;;;7.63;2.90;;;;;;;;;;5073131;28;20099;-72
2022/07/15 01:07:35;;;;;;;9.35;3.30;;;;;;;;;;5087677;28;20375;-71
2022/07/15 01:10:01;;;;;;;7.72;2.75;;;;;;;;;;5083423;28;20012;-72
2022/07/15 01:12:27;;;;;;;15.07;3.08;;;;;;;;;;5088226;28;20035;-72
2022/07/15 01:14:52;;;;;;;10.70;3.35;;;;;;;;;;5066087;28;20029;-72
2022/07/15 01:17:17;;;;;;;8.23;2.60;;;;;;;;;;5075633;28;20422;-72
2022/07/15 01:19:43;;;;;;;11.43;3.17;;;;;;;;;;5075289;28;20119;-71
2022/07/15 01:22:08;;;;;;;11.27;3.08;;;;;;;;;;5076842;28;20081;-71
2022/07/15 01:24:34;;;;;;;7.10;2.58;;;;;;;;;;5077314;28;20028;-72
2022/07/15 01:27:00;;;;;;;10.25;2.90;;;;;;;;;;5086393;28;20031;-72
2022/07/15 01:29:26;;;;;;;13.05;2.97;;;;;;;;;;5077071;28;20048;-72
2022/07/15 01:31:51;;;;;;;11.00;2.80;;;;;;;;;;5073922;28;20110;-72
2022/07/15 01:34:17;;;;;;;6.78;2.58;;;;;;;;;;5075086;28;20029;-72
2022/07/15 01:36:42;;;;;;;10.95;2.85;;;;;;;;;;5075523;28;20036;-72
2022/07/15 01:39:07;;;;;;;11.30;3.10;;;;;;;;;;5077283;28;20054;-72
2022/07/15 01:41:33;;;;;;;7.18;2.90;;;;;;;;;;5084473;28;20023;-72
2022/07/15 01:43:58;;;;;;;7.07;2.65;;;;;;;;;;5076478;28;20024;-71
2022/07/15 01:46:23;;;;;;;6.40;2.65;;;;;;;;;;5073530;28;20016;-72
2022/07/15 01:51:33;;;;;;;5.03;2.70;;;;;;;;;;5069089;28;20426;-71
2022/07/15 01:53:58;;;;;;;8.55;2.95;;;;;;;;;;5077920;28;20020;-71
2022/07/15 01:56:23;;;;;;;8.90;2.83;;;;;;;;;;5073670;28;20032;-71
2022/07/15 01:58:49;;;;;;;7.97;2.50;;;;;;;;;;5073077;28;20033;-71
2022/07/15 02:01:14;;;;;;;11.50;3.30;;;;;;;;;;5074970;28;20448;-72
2022/07/15 02:03:39;;;;;;;7.07;2.65;;;;;;;;;;5073616;28;20094;-71
2022/07/15 02:06:05;;;;;;;8.18;2.80;;;;;;;;;;5076303;28;20024;-71
2022/07/15 02:08:30;;;;;;;7.47;3.05;;;;;;;;;;5075200;28;20024;-72
2022/07/15 02:10:55;;;;;;;11.82;2.67;;;;;;;;;;5079653;28;20043;-72
2022/07/15 02:13:21;;;;;;;6.95;2.92;;;;;;;;;;5081423;28;20020;-71
2022/07/15 02:15:47;;;;;;;9.55;2.90;;;;;;;;;;5073621;28;20021;-72
2022/07/15 02:18:12;;;;;;;10.95;2.90;;;;;;;;;;5079370;28;20039;-71
2022/07/15 02:20:38;;;;;;;11.40;2.70;;;;;;;;;;5086341;28;20084;-72
2022/07/15 02:23:03;;;;;;;5.35;2.83;;;;;;;;;;5073448;28;20031;-72
2022/07/15 02:25:30;;;;;;;7.97;2.78;;;;;;;;;;5075509;28;20118;-72
2022/07/15 02:27:58;;;;;;;8.32;3.13;;;;;;;;;;5083218;28;20026;-71
2022/07/15 02:30:26;;;;;;;7.75;2.70;;;;;;;;;;5072443;28;20501;-71
2022/07/15 02:32:51;;;;;;;6.38;3.25;;;;;;;;;;5082301;28;20052;-71
2022/07/15 02:35:17;;;;;;;9.85;3.00;;;;;;;;;;5076791;28;20109;-70
2022/07/15 02:37:43;;;;;;;7.25;2.65;;;;;;;;;;5091026;28;20024;-70
2022/07/15 02:40:08;;;;;;;9.73;2.67;;;;;;;;;;5073354;28;20477;-72
2022/07/15 02:42:34;;;;;;;7.57;2.63;;;;;;;;;;5073821;28;20024;-71
2022/07/15 02:44:59;;;;;;;8.57;2.70;;;;;;;;;;5077785;28;20051;-71
2022/07/15 02:47:24;;;;;;;12.32;3.55;;;;;;;;;;5073047;28;20021;-71
2022/07/15 02:49:50;;;;;;;8.98;2.60;;;;;;;;;;5080691;28;20115;-71
2022/07/15 02:52:15;;;;;;;7.90;2.78;;;;;;;;;;5077938;28;20034;-71
2022/07/15 02:54:40;;;;;;;6.45;2.83;;;;;;;;;;5083171;28;20075;-71
2022/07/15 02:57:05;;;;;;;4.85;2.67;;;;;;;;;;5086162;28;20039;-72
2022/07/15 02:59:31;;;;;;;5.75;2.78;;;;;;;;;;5082044;28;20081;-71
2022/07/15 03:01:56;;;;;;;5.90;2.80;;;;;;;;;;5072385;28;20382;-72
2022/07/15 03:04:21;;;;;;;9.90;3.00;;;;;;;;;;5078315;28;20067;-71
2022/07/15 03:06:46;;;;;;;8.85;2.85;;;;;;;;;;5082174;28;20039;-72
2022/07/15 03:09:12;;;;;;;7.50;2.70;;;;;;;;;;5079562;28;20060;-72
2022/07/15 03:11:37;;;;;;;8.85;2.80;;;;;;;;;;5079192;28;20009;-72
2022/07/15 03:14:02;;;;;;;7.82;2.60;;;;;;;;;;5062374;28;20012;-72
2022/07/15 03:16:28;;;;;;;9.00;2.72;;;;;;;;;;5072286;28;20025;-71
2022/07/15 03:18:53;;;;;;;5.78;2.67;;;;;;;;;;5072181;28;20035;-72
2022/07/15 03:21:18;;;;;;;12.25;2.70;;;;;;;;;;5075123;28;20020;-71
2022/07/15 03:23:43;;;;;;;6.57;2.42;;;;;;;;;;5076600;28;20082;-71
2022/07/15 03:26:09;;;;;;;7.18;2.97;;;;;;;;;;5079962;28;20048;-72
2022/07/15 03:28:34;;;;;;;8.07;2.78;;;;;;;;;;5079715;28;20012;-71
2022/07/15 03:31:00;;;;;;;8.52;2.47;;;;;;;;;;5076141;28;20031;-71
2022/07/15 03:33:25;;;;;;;8.50;2.95;;;;;;;;;;5080474;28;20096;-71
2022/07/15 03:35:50;;;;;;;9.55;2.80;;;;;;;;;;5087676;28;20040;-71
2022/07/15 03:38:16;;;;;;;7.55;2.53;;;;;;;;;;5081907;28;20050;-72
2022/07/15 03:40:41;;;;;;;7.88;2.75;;;;;;;;;;5078574;28;20493;-71
2022/07/15 03:43:06;;;;;;;7.97;2.97;;;;;;;;;;5079304;28;20017;-71
2022/07/15 03:45:32;;;;;;;5.20;2.72;;;;;;;;;;5077319;28;20021;-72
2022/07/15 03:47:57;;;;;;;9.30;2.70;;;;;;;;;;5085010;28;20016;-71
2022/07/15 03:50:22;;;;;;;11.77;2.75;;;;;;;;;;5079579;28;20051;-70
2022/07/15 03:52:48;;;;;;;5.75;2.17;;;;;;;;;;5090826;28;20029;-71
2022/07/15 03:55:13;;;;;;;8.57;2.50;;;;;;;;;;5076585;28;20353;-72
2022/07/15 03:57:38;;;;;;;12.82;2.63;;;;;;;;;;5076908;28;20044;-72
2022/07/15 04:00:04;;;;;;;9.20;3.05;;;;;;;;;;5077507;28;20028;-72
2022/07/15 04:02:29;;;;;;;8.02;2.70;;;;;;;;;;5085409;28;20020;-72
2022/07/15 04:04:55;;;;;;;10.85;3.03;;;;;;;;;;5080087;28;20016;-72
2022/07/15 04:07:20;;;;;;;7.32;2.65;;;;;;;;;;5091156;28;20422;-71
2022/07/15 04:09:45;;;;;;;8.88;2.40;;;;;;;;;;5082248;28;20020;-71
2022/07/15 04:12:11;;;;;;;7.85;2.45;;;;;;;;;;5087291;28;20017;-72
2022/07/15 04:14:36;;;;;;;14.85;2.85;;;;;;;;;;5075767;28;20078;-71
2022/07/15 04:17:02;;;;;;;5.30;2.30;;;;;;;;;;5067369;28;20024;-71
2022/07/15 04:19:28;;;;;;;6.28;2.75;;;;;;;;;;5085153;28;20070;-71
2022/07/15 04:21:53;;;;;;;10.15;2.80;;;;;;;;;;5080640;28;20040;-72
2022/07/15 04:24:18;;;;;;;5.10;2.58;;;;;;;;;;5083491;28;20047;-71
2022/07/15 04:26:44;;;;;;;7.40;2.72;;;;;;;;;;5083993;28;20423;-71
2022/07/15 04:29:09;;;;;;;6.50;2.85;;;;;;;;;;5083039;28;20029;-71
2022/07/15 04:31:34;;;;;;;4.15;2.33;;;;;;;;;;5075677;28;20028;-72
2022/07/15 04:34:00;;;;;;;8.63;2.67;;;;;;;;;;5083992;28;20058;-71
2022/07/15 04:36:25;;;;;;;7.82;2.80;;;;;;;;;;5087577;28;20425;-71
2022/07/15 04:38:50;;;;;;;6.20;2.60;;;;;;;;;;5081120;28;20032;-72
2022/07/15 04:41:15;;;;;;;6.90;2.20;;;;;;;;;;5082709;28;20459;-71
2022/07/15 04:43:41;;;;;;;7.18;2.30;;;;;;;;;;5075308;28;20028;-72
2022/07/15 04:46:06;;;;;;;7.47;2.67;;;;;;;;;;5078398;28;20114;-71
2022/07/15 04:51:15;;;;;;;10.25;2.33;;;;;;;;;;5072357;28;20129;-72
2022/07/15 04:53:40;;;;;;;8.32;2.10;;;;;;;;;;5077155;28;20062;-71
2022/07/15 04:56:06;;;;;;;14.48;2.58;;;;;;;;;;5078166;28;20070;-72
2022/07/15 04:58:31;;;;;;;7.70;2.00;;;;;;;;;;5077891;28;20090;-71
2022/07/15 05:00:56;;;;;;;4.50;1.70;;;;;;;;;;5079386;28;20028;-72
2022/07/15 05:03:22;;;;;;;5.53;2.13;;;;;;;;;;5076278;28;20508;-71
2022/07/15 05:05:47;;;;;;;4.95;1.90;;;;;;;;;;5073004;28;20094;-71
2022/07/15 05:08:12;;;;;;;6.95;1.98;;;;;;;;;;5088228;28;20028;-71
2022/07/15 05:10:38;;;;;;;4.72;2.10;;;;;;;;;;5077142;28;20036;-72
2022/07/15 05:13:03;;;;;;;4.57;1.98;;;;;;;;;;5083217;28;20012;-71
2022/07/15 05:15:28;;;;;;;4.15;1.85;;;;;;;;;;5073417;28;20020;-72
2022/07/15 05:17:54;;;;;;;3.72;1.98;;;;;;;;;;5075077;28;20020;-72
2022/07/15 05:20:19;;;;;;;6.60;2.00;;;;;;;;;;5078183;28;20028;-71
2022/07/15 05:22:45;;;;;;;7.50;1.90;;;;;;;;;;5075777;28;20025;-72
2022/07/15 05:25:10;;;;;;;7.38;1.60;;;;;;;;;;5079020;28;20036;-71
2022/07/15 05:27:35;;;;;;;8.02;1.80;;;;;;;;;;5077930;28;20025;-70
2022/07/15 05:30:01;;;;;;;4.00;1.50;;;;;;;;;;5080516;28;20092;-71
2022/07/15 05:32:26;;;;;;;3.13;1.45;;;;;;;;;;5073785;28;20781;-72
2022/07/15 05:34:51;;;;;;;2.75;1.45;;;;;;;;;;5081554;28;20100;-72
2022/07/15 05:37:16;;;;;;;3.47;1.13;;;;;;;;;;5075434;28;20032;-71
2022/07/15 05:39:53;;;;;;;2.10;1.20;;;;;;;;;;5078229;28;20051;-71
2022/07/15 05:42:21;;;;;;;2.47;1.02;;;;;;;;;;5077749;28;20017;-72
2022/07/15 05:44:47;;;;;;;2.58;1.02;;;;;;;;;;5076451;28;20499;-72
2022/07/15 05:47:13;;;;;;;3.47;1.30;;;;;;;;;;5075254;28;20025;-72
2022/07/15 05:49:38;;;;;;;3.45;1.13;;;;;;;;;;5078667;28;20353;-72
2022/07/15 05:52:03;;;;;;;2.92;1.20;;;;;;;;;;5080820;28;20035;-72
2022/07/15 05:54:29;;;;;;;2.58;0.90;;;;;;;;;;5074558;28;20367;-72
2022/07/15 05:56:54;;;;;;;2.70;1.00;;;;;;;;;;5081123;28;20028;-72
2022/07/15 05:59:19;;;;;;;6.25;1.00;;;;;;;;;;5082717;28;20024;-72
2022/07/15 06:01:45;;;;;;;2.85;1.10;;;;;;;;;;5080202;28;20021;-72
2022/07/15 06:04:10;;;;;;;3.45;1.10;;;;;;;;;;5075065;28;20086;-72
2022/07/15 06:06:35;;;;;;;2.90;1.00;;;;;;;;;;5077471;28;20032;-72
2022/07/15 06:09:01;;;;;;;6.72;1.55;;;;;;;;;;5073880;28;20029;-72
2022/07/15 06:11:26;;;;;;;2.42;0.82;;;;;;;;;;5077611;28;20447;-72
2022/07/15 06:13:51;;;;;;;3.03;1.00;;;;;;;;;;5075718;28;20032;-72
2022/07/15 06:16:16;;;;;;;2.55;1.00;;;;;;;;;;5075752;28;20020;-73
2022/07/15 06:18:42;;;;;;;2.25;0.90;;;;;;;;;;5066930;28;20031;-73
2022/07/15 06:21:07;;;;;;;3.30;1.20;;;;;;;;;;5085012;28;20551;-73
2022/07/15 06:23:32;;;;;;;8.02;1.33;;;;;;;;;;5081615;28;20020;-73
2022/07/15 06:25:58;;;;;;;2.30;0.90;;;;;;;;;;5077166;28;20022;-74
2022/07/15 06:28:23;;;;;;;1.80;0.90;;;;;;;;;;5072342;28;20483;-73
2022/07/15 06:30:48;;;;;;;2.60;1.10;;;;;;;;;;5072715;28;20032;-73
2022/07/15 06:33:13;;;;;;;2.00;1.00;;;;;;;;;;5074490;28;20441;-73
2022/07/15 06:35:39;;;;;;;2.50;1.20;;;;;;;;;;5074106;28;20036;-73
2022/07/15 06:38:04;;;;;;;2.30;0.95;;;;;;;;;;5080511;28;20025;-73
2022/07/15 06:40:29;;;;;;;2.53;0.98;;;;;;;;;;5078246;28;20093;-73
2022/07/15 06:42:55;;;;;;;2.53;1.00;;;;;;;;;;5083786;28;20399;-73
2022/07/15 06:45:20;;;;;;;1.67;0.80;;;;;;;;;;5072679;28;20144;-74
2022/07/15 06:47:46;;;;;;;2.08;1.10;;;;;;;;;;5073524;28;20035;-73
2022/07/15 06:50:11;;;;;;;3.80;1.05;;;;;;;;;;5072987;28;20119;-74
2022/07/15 06:52:37;;;;;;;3.38;1.08;;;;;;;;;;5080002;28;20009;-73
2022/07/15 06:55:03;;;;;;;3.40;1.13;;;;;;;;;;5078347;28;20042;-74
2022/07/15 06:57:28;;;;;;;2.60;1.13;;;;;;;;;;5086048;28;20040;-74
2022/07/15 06:59:54;;;;;;;3.45;1.40;;;;;;;;;;5080011;28;20081;-74
2022/07/15 07:02:19;;;;;;;3.67;1.58;;;;;;;;;;5081632;28;20032;-74
2022/07/15 07:04:45;;;;;;;6.28;1.30;;;;;;;;;;5084411;28;20028;-74
2022/07/15 07:07:10;;;;;;;5.65;1.35;;;;;;;;;;5090935;28;20236;-74
2022/07/15 07:09:35;;;;;;;4.15;1.35;;;;;;;;;;5086667;28;20028;-74
2022/07/15 07:12:00;;;;;;;4.05;1.27;;;;;;;;;;5092090;28;20036;-74
2022/07/15 07:14:26;;;;;;;3.15;1.30;;;;;;;;;;5084952;28;20070;-74
2022/07/15 07:16:51;;;;;;;3.90;1.25;;;;;;;;;;5077241;28;21382;-75
2022/07/15 07:19:17;;;;;;;4.20;1.50;;;;;;;;;;5075286;28;20410;-73
2022/07/15 07:21:42;;;;;;;3.67;1.40;;;;;;;;;;5082038;28;20023;-73
2022/07/15 07:24:07;;;;;;;2.33;1.10;;;;;;;;;;5086415;28;20091;-72
2022/07/15 07:26:33;;;;;;;3.05;1.13;;;;;;;;;;5078866;28;20036;-71
2022/07/15 07:28:58;;;;;;;4.05;1.70;;;;;;;;;;5083948;28;20055;-72
2022/07/15 07:31:26;;;;;;;2.67;1.00;;;;;;;;;;5088032;28;20020;-71
2022/07/15 07:33:53;;;;;;;3.25;1.02;;;;;;;;;;5087817;28;20037;-72
2022/07/15 07:36:18;;;;;;;3.08;1.25;;;;;;;;;;5089807;28;20374;-72
2022/07/15 07:38:44;;;;;;;4.85;1.30;;;;;;;;;;5089482;28;20091;-72
2022/07/15 07:41:09;;;;;;;3.35;1.40;;;;;;;;;;5085177;28;20036;-72
2022/07/15 07:43:35;;;;;;;4.68;1.08;;;;;;;;;;5084298;28;20376;-72
2022/07/15 07:46:00;;;;;;;1.85;0.90;;;;;;;;;;5076676;28;20109;-72
2022/07/15 07:48:26;;;;;;;3.13;1.15;;;;;;;;;;5090842;28;20494;-72
2022/07/15 07:50:53;;;;;;;3.90;1.17;;;;;;;;;;5094028;28;20458;-72
2022/07/15 07:53:18;;;;;;;2.72;1.10;;;;;;;;;;5088048;28;20020;-72
2022/07/15 07:55:43;;;;;;;4.63;1.20;;;;;;;;;;5079122;28;20048;-71
2022/07/15 07:58:09;;;;;;;2.72;0.95;;;;;;;;;;5087213;28;20019;-72
2022/07/15 08:00:34;;;;;;;3.90;1.15;;;;;;;;;;5082471;28;20119;-72
2022/07/15 08:03:00;;;;;;;3.80;0.95;;;;;;;;;;5085772;28;20093;-73
2022/07/15 08:05:26;;;;;;;3.20;1.20;;;;;;;;;;5080016;28;20017;-72
2022/07/15 08:08:04;;;;;;;2.75;1.30;;;;;;;;;;5084449;28;20024;-72
2022/07/15 08:10:29;;;;;;;2.88;1.23;;;;;;;;;;5079314;28;20464;-73
2022/07/15 08:12:55;;;;;;;3.50;1.20;;;;;;;;;;5079541;28;20028;-73
2022/07/15 08:15:21;;;;;;;4.80;1.23;;;;;;;;;;5074406;28;20127;-73
2022/07/15 08:17:46;;;;;;;4.90;1.10;;;;;;;;;;5077830;28;20029;-73
2022/07/15 08:20:13;;;;;;;3.20;1.13;;;;;;;;;;5085007;28;20470;-72
2022/07/15 08:22:38;;;;;;;1.90;1.10;;;;;;;;;;5083653;28;20059;-72
2022/07/15 08:25:04;;;;;;;2.53;1.38;;;;;;;;;;5091347;28;20391;-72
2022/07/15 08:27:30;;;;;;;7.10;1.30;;;;;;;;;;5090026;28;20555;-73
2022/07/15 08:29:55;;;;;;;2.80;1.10;;;;;;;;;;5084365;28;20036;-73
2022/07/15 08:32:21;;;;;;;2.50;1.30;;;;;;;;;;5081145;28;20040;-73
2022/07/15 08:34:47;;;;;;;5.10;1.40;;;;;;;;;;5082542;28;20032;-73
2022/07/15 08:37:12;;;;;;;4.63;1.10;;;;;;;;;;5080860;28;20121;-72
2022/07/15 08:39:38;;;;;;;6.05;1.55;;;;;;;;;;5077393;28;20049;-73
2022/07/15 08:42:03;;;;;;;4.10;1.30;;;;;;;;;;5083097;28;20144;-73
2022/07/15 08:44:29;;;;;;;4.55;1.33;;;;;;;;;;5082178;28;20032;-73
2022/07/15 08:46:57;;;;;;;5.13;1.38;;;;;;;;;;5067897;28;20039;-73
2022/07/15 08:49:23;;;;;;;3.33;1.27;;;;;;;;;;5080296;28;20383;-73
2022/07/15 08:51:48;;;;;;;4.43;1.33;;;;;;;;;;5086054;28;20040;-73
2022/07/15 08:54:14;;;;;;;2.97;1.40;;;;;;;;;;5061419;28;20043;-74
2022/07/15 08:56:40;;;;;;;2.88;1.20;;;;;;;;;;5083329;28;20538;-73
2022/07/15 08:59:06;;;;;;;2.95;1.10;;;;;;;;;;5068927;28;20060;-73
2022/07/15 09:01:32;;;;;;;3.95;1.15;;;;;;;;;;5077055;28;20934;-73
2022/07/15 09:03:58;;;;;;;9.00;1.40;;;;;;;;;;5077144;28;20028;-73
2022/07/15 09:06:31;;;;;;;3.95;1.35;;;;;;;;;;5083231;28;20044;-73
2022/07/15 09:08:56;;;;;;;6.40;1.40;;;;;;;;;;5076337;28;20060;-73
2022/07/15 09:11:27;;;;;;;2.97;1.30;;;;;;;;;;5085772;28;20113;-73
2022/07/15 09:13:52;;;;;;;3.78;1.40;;;;;;;;;;5065729;28;20033;-73
2022/07/15 09:16:21;;;;;;;3.38;1.42;;;;;;;;;;5085590;28;20031;-73
2022/07/15 09:18:48;;;;;;;7.15;1.30;;;;;;;;;;5080480;28;20017;-73
2022/07/15 09:21:23;;;;;;;3.67;1.60;;;;;;;;;;5077651;28;20067;-73
2022/07/15 09:23:50;;;;;;;4.28;1.50;;;;;;;;;;5074198;28;20028;-73
2022/07/15 09:26:21;;;;;;;2.83;1.27;;;;;;;;;;5063107;28;20071;-74
2022/07/15 09:28:49;;;;;;;4.55;1.50;;;;;;;;;;5075749;28;20483;-74
2022/07/15 09:33:59;;;;;;;5.63;1.45;;;;;;;;;;5071840;28;20412;-74
2022/07/15 09:36:27;;;;;;;9.38;1.55;;;;;;;;;;5075882;28;20153;-73
2022/07/15 09:38:57;;;;;;;3.28;1.40;;;;;;;;;;5074589;28;20084;-73
2022/07/15 09:41:33;;;;;;;3.30;1.23;;;;;;;;;;5078017;28;20360;-73
2022/07/15 09:44:01;;;;;;;5.50;1.40;;;;;;;;;;5083328;28;20047;-73
2022/07/15 09:46:28;;;;;;;6.55;1.27;;;;;;;;;;5076143;28;20609;-73
2022/07/15 09:48:54;;;;;;;6.70;1.40;;;;;;;;;;5079616;28;20364;-74
2022/07/15 09:51:20;;;;;;;4.00;1.30;;;;;;;;;;5079066;28;20028;-73
2022/07/15 09:53:45;;;;;;;4.57;1.25;;;;;;;;;;5072756;28;20033;-73
2022/07/15 09:56:13;;;;;;;3.47;1.23;;;;;;;;;;5079759;28;20051;-73
2022/07/15 09:58:39;;;;;;;9.40;1.70;;;;;;;;;;5078021;28;20024;-75
2022/07/15 10:01:05;;;;;;;3.40;1.40;;;;;;;;;;5088020;28;20032;-75
2022/07/15 10:03:32;;;;;;;11.65;1.42;;;;;;;;;;5086551;28;20020;-76
2022/07/15 10:05:59;;;;;;;3.08;1.33;;;;;;;;;;5082596;28;20517;-75
2022/07/15 10:08:24;;;;;;;3.42;1.50;;;;;;;;;;5077533;28;20031;-74
2022/07/15 10:10:51;;;;;;;4.47;1.20;;;;;;;;;;5075692;28;20024;-75
2022/07/15 10:13:25;;;;;;;4.05;1.20;;;;;;;;;;5071981;28;20032;-74
2022/07/15 10:15:54;;;;;;;8.70;1.35;;;;;;;;;;5063909;28;20032;-75
2022/07/15 10:18:28;;;;;;;3.50;1.30;;;;;;;;;;5070171;28;20115;-74
2022/07/15 10:21:00;;;;;;;3.30;1.60;;;;;;;;;;5069188;28;20051;-75
2022/07/15 10:23:25;;;;;;;3.22;1.35;;;;;;;;;;5071965;28;20074;-75
2022/07/15 10:25:55;;;;;;;4.82;1.40;;;;;;;;;;5071642;28;20045;-75
2022/07/15 10:28:20;;;;;;;2.55;1.10;;;;;;;;;;5081912;28;20024;-74
2022/07/15 10:30:45;;;;;;;3.40;1.15;;;;;;;;;;5078086;28;20501;-75
2022/07/15 10:33:15;;;;;;;4.10;1.58;;;;;;;;;;5085410;28;20040;-75
2022/07/15 10:35:43;;;;;;;3.55;1.10;;;;;;;;;;5080081;28;20074;-74
2022/07/15 10:38:22;;;;;;;2.63;1.20;;;;;;;;;;5085918;28;20025;-74
2022/07/15 10:40:57;;;;;;;3.03;1.30;;;;;;;;;;5084717;28;20360;-73
2022/07/15 10:43:52;;;;;;;4.13;1.40;;;;;;;;;;5084892;28;20036;-73
2022/07/15 10:46:17;;;;;;;3.40;1.30;;;;;;;;;;5052578;28;20082;-73
2022/07/15 10:48:46;;;;;;;2.85;1.20;;;;;;;;;;5071500;28;20059;-73
2022/07/15 10:51:12;;;;;;;4.32;1.42;;;;;;;;;;5083968;28;20044;-73
2022/07/15 10:53:44;;;;;;;4.55;1.77;;;;;;;;;;5075935;28;20013;-73
2022/07/15 10:56:28;;;;;;;5.30;1.50;;;;;;;;;;5068201;28;20107;-73
2022/07/15 10:59:11;;;;;;;4.10;1.50;;;;;;;;;;5069516;28;20326;-73
2022/07/15 11:01:37;;;;;;;5.68;1.60;;;;;;;;;;5071490;28;20033;-74
2022/07/15 11:04:11;;;;;;;3.90;1.17;;;;;;;;;;5069587;28;20392;-74
2022/07/15 11:07:09;;;;;;;3.00;1.10;;;;;;;;;;5070195;28;20426;-73
2022/07/15 11:09:44;;;;;;;5.15;1.25;;;;;;;;;;5059949;28;20074;-73
2022/07/15 11:12:09;;;;;;;5.72;1.42;;;;;;;;;;5081385;28;20031;-72
2022/07/15 11:14:40;;;;;;;3.38;1.40;;;;;;;;;;5069666;28;20464;-73
2022/07/15 11:17:06;;;;;;;6.85;1.60;;;;;;;;;;5067332;28;20129;-72
2022/07/15 11:19:32;;;;;;;5.63;1.70;;;;;;;;;;5064192;28;20052;-72
2022/07/15 11:21:58;;;;;;;3.95;1.50;;;;;;;;;;5074359;28;20035;-72
2022/07/15 11:24:24;;;;;;;4.65;1.50;;;;;;;;;;5072166;28;20033;-72
2022/07/15 11:26:50;;;;;;;3.10;1.20;;;;;;;;;;5079902;28;20049;-73
2022/07/15 11:29:15;;;;;;;3.20;1.30;;;;;;;;;;5082530;28;20025;-72
2022/07/15 11:31:42;;;;;;;2.55;1.20;;;;;;;;;;5081279;28;20097;-72
2022/07/15 11:34:08;;;;;;;5.85;1.20;;;;;;;;;;5076723;28;20472;-72
2022/07/15 11:36:33;;;;;;;4.68;1.27;;;;;;;;;;5081490;28;20040;-72
2022/07/15 11:38:59;;;;;;;3.47;1.60;;;;;;;;;;5067574;28;20044;-73
2022/07/15 11:46:53;;;;;;;3.15;1.30;;;;;;;;;;5065372;28;20537;-74
2022/07/15 11:49:29;;;;;;;3.65;1.40;;;;;;;;;;5073813;28;20052;-73
2022/07/15 11:51:54;;;;;;;3.88;1.40;;;;;;;;;;5080222;28;20055;-74
2022/07/15 11:54:20;;;;;;;5.28;1.55;;;;;;;;;;5075539;28;20056;-73
2022/07/15 11:56:59;;;;;;;4.05;1.30;;;;;;;;;;5071172;28;20367;-73
2022/07/15 11:59:24;;;;;;;5.20;1.50;;;;;;;;;;5084827;28;20032;-73
2022/07/15 12:02:02;;;;;;;3.72;1.50;;;;;;;;;;5062496;28;20059;-73
2022/07/15 12:04:27;;;;;;;4.90;1.50;;;;;;;;;;5073966;28;20454;-73
2022/07/15 12:06:52;;;;;;;5.00;1.60;;;;;;;;;;5078532;28;20116;-73
2022/07/15 12:09:18;;;;;;;5.03;1.40;;;;;;;;;;5081609;28;20020;-72
2022/07/15 12:11:43;;;;;;;5.78;1.52;;;;;;;;;;5078720;28;20033;-73
2022/07/15 12:14:12;;;;;;;3.90;1.33;;;;;;;;;;5083616;28;20033;-73
2022/07/15 12:16:48;;;;;;;4.18;1.52;;;;;;;;;;5076025;28;20093;-73
2022/07/15 12:19:13;;;;;;;4.25;1.73;;;;;;;;;;5071861;28;20091;-74
2022/07/15 12:21:40;;;;;;;4.05;1.45;;;;;;;;;;5088963;28;20424;-73
2022/07/15 12:24:10;;;;;;;5.07;1.70;;;;;;;;;;5083359;28;20436;-73
2022/07/15 12:26:38;;;;;;;3.70;1.65;;;;;;;;;;5077321;28;20021;-73
2022/07/15 12:29:04;;;;;;;4.10;1.45;;;;;;;;;;5066468;28;20028;-74
2022/07/15 12:31:31;;;;;;;4.72;1.42;;;;;;;;;;5079889;28;20073;-73
2022/07/15 12:33:56;;;;;;;3.78;1.50;;;;;;;;;;5089428;28;20451;-73
2022/07/15 12:36:24;;;;;;;4.93;1.40;;;;;;;;;;5085230;28;20039;-73
2022/07/15 12:39:05;;;;;;;3.65;1.50;;;;;;;;;;5082445;28;20039;-73
2022/07/15 12:41:32;;;;;;;3.53;1.20;;;;;;;;;;5069509;28;20059;-73
2022/07/15 12:44:00;;;;;;;6.75;1.60;;;;;;;;;;5076262;28;20021;-73
2022/07/15 12:46:43;;;;;;;3.88;1.30;;;;;;;;;;5081748;28;20436;-73
2022/07/15 12:49:09;;;;;;;4.40;1.42;;;;;;;;;;5088932;28;20035;-73
2022/07/15 12:51:34;;;;;;;7.03;1.60;;;;;;;;;;5078961;28;20434;-73
2022/07/15 12:54:04;;;;;;;4.05;1.40;;;;;;;;;;5074665;28;20118;-74
2022/07/15 12:56:30;;;;;;;8.55;1.63;;;;;;;;;;5077289;28;20024;-74
2022/07/15 12:58:55;;;;;;;4.93;1.58;;;;;;;;;;5081947;28;20456;-74
2022/07/15 13:01:21;;;;;;;3.55;1.30;;;;;;;;;;5074348;28;20071;-73
2022/07/15 13:03:46;;;;;;;3.47;1.20;;;;;;;;;;5079597;28;20024;-73
2022/07/15 13:06:11;;;;;;;3.58;1.40;;;;;;;;;;5081767;28;20032;-74
2022/07/15 13:08:38;;;;;;;5.10;1.52;;;;;;;;;;5083801;28;20044;-74
2022/07/15 13:11:04;;;;;;;3.70;1.40;;;;;;;;;;5076025;28;20032;-73
2022/07/15 13:13:31;;;;;;;4.20;1.40;;;;;;;;;;5079328;28;20049;-73
2022/07/15 13:15:58;;;;;;;2.80;1.40;;;;;;;;;;5083366;28;20471;-73
2022/07/15 13:18:25;;;;;;;3.28;1.58;;;;;;;;;;5080402;28;20036;-72
2022/07/15 13:20:51;;;;;;;3.55;1.48;;;;;;;;;;5083681;28;20446;-72
2022/07/15 13:23:16;;;;;;;4.05;1.50;;;;;;;;;;5068241;28;20375;-72
2022/07/15 13:25:42;;;;;;;3.58;1.20;;;;;;;;;;5077870;28;20043;-72
2022/07/15 13:28:08;;;;;;;4.63;1.63;;;;;;;;;;5082349;28;20099;-72
2022/07/15 13:30:34;;;;;;;6.40;1.38;;;;;;;;;;5076697;28;20019;-73
2022/07/15 13:32:59;;;;;;;3.95;1.30;;;;;;;;;;5079502;28;20021;-73
2022/07/15 13:35:25;;;;;;;3.42;1.67;;;;;;;;;;5078993;28;20032;-73
2022/07/15 13:37:50;;;;;;;2.80;1.30;;;;;;;;;;5069039;28;20364;-73
2022/07/15 13:40:15;;;;;;;3.80;1.40;;;;;;;;;;5085611;28;20055;-72
2022/07/15 13:42:41;;;;;;;5.00;1.42;;;;;;;;;;5078896;28;20988;-72
2022/07/15 13:45:07;;;;;;;2.47;1.10;;;;;;;;;;5082883;28;20037;-72
2022/07/15 13:47:33;;;;;;;3.70;1.40;;;;;;;;;;5070125;28;20059;-72
2022/07/15 13:52:46;;;;;;;4.22;1.40;;;;;;;;;;5082572;28;20493;-73
2022/07/15 13:55:12;;;;;;;5.05;1.80;;;;;;;;;;5069462;28;20036;-73
2022/07/15 13:57:37;;;;;;;2.65;1.42;;;;;;;;;;5069942;28;20620;-73
2022/07/15 14:00:07;;;;;;;3.78;1.55;;;;;;;;;;5072177;28;20035;-73
2022/07/15 14:02:33;;;;;;;3.28;1.10;;;;;;;;;;5074617;28;20077;-73
2022/07/15 14:04:58;;;;;;;6.45;1.70;;;;;;;;;;5074856;28;20017;-72
2022/07/15 14:07:23;;;;;;;4.10;1.48;;;;;;;;;;5080618;28;20035;-72
2022/07/15 14:09:49;;;;;;;3.40;1.27;;;;;;;;;;5082970;28;20035;-72
2022/07/15 14:12:14;;;;;;;4.00;1.48;;;;;;;;;;5082284;28;20023;-72
2022/07/15 14:14:39;;;;;;;3.03;1.30;;;;;;;;;;5074219;28;20017;-72
2022/07/15 14:17:05;;;;;;;2.72;1.23;;;;;;;;;;5079392;28;20042;-72
2022/07/15 14:19:30;;;;;;;2.97;1.23;;;;;;;;;;5082047;28;20047;-72
2022/07/15 14:21:55;;;;;;;4.20;1.33;;;;;;;;;;5085657;28;20137;-72
2022/07/15 14:24:21;;;;;;;3.28;1.33;;;;;;;;;;5079209;28;20037;-72
2022/07/15 14:26:46;;;;;;;4.35;1.30;;;;;;;;;;5079034;28;20039;-73
2022/07/15 14:29:11;;;;;;;3.42;1.30;;;;;;;;;;5076290;28;20412;-72
2022/07/15 14:31:37;;;;;;;5.57;1.50;;;;;;;;;;5075472;28;20436;-72
2022/07/15 14:34:02;;;;;;;3.55;1.13;;;;;;;;;;5085406;28;20016;-73
2022/07/15 14:36:27;;;;;;;4.25;1.30;;;;;;;;;;5080003;28;20446;-72
2022/07/15 14:38:53;;;;;;;5.10;1.48;;;;;;;;;;5079769;28;20063;-72
2022/07/15 14:41:18;;;;;;;5.28;1.30;;;;;;;;;;5083781;28;20040;-72
2022/07/15 14:43:43;;;;;;;2.40;1.10;;;;;;;;;;5075187;28;20452;-72
2022/07/15 14:46:09;;;;;;;3.30;1.20;;;;;;;;;;5078059;28;20032;-72
2022/07/15 14:48:34;;;;;;;3.10;1.10;;;;;;;;;;5075430;28;20025;-72
2022/07/15 14:50:59;;;;;;;4.60;1.45;;;;;;;;;;5082232;28;20016;-73
2022/07/15 14:53:25;;;;;;;2.85;1.10;;;;;;;;;;5083108;28;20082;-72
2022/07/15 14:55:50;;;;;;;4.28;1.50;;;;;;;;;;5083676;28;20023;-72